createdAt,value
2018-02-14T00:01:03.256Z,101461.86
2018-02-14T00:03:31.644Z,101463.58
2018-02-14T00:05:59.966Z,101464.41
2018-02-14T00:08:29.041Z,101472.53
2018-02-14T00:10:57.411Z,101467.78
2018-02-14T00:13:26.680Z,101467.00
2018-02-14T00:15:55.421Z,101475.66
2018-02-14T00:18:23.796Z,101480.72
2018-02-14T00:20:52.493Z,101491.65
2018-02-14T00:23:20.872Z,101486.34
2018-02-14T00:25:49.248Z,101480.76
2018-02-14T00:28:17.547Z,101483.43
2018-02-14T00:30:46.903Z,101487.65
2018-02-14T00:33:16.006Z,101493.33
2018-02-14T00:35:45.241Z,101483.73
2018-02-14T00:38:13.573Z,101485.58
2018-02-14T00:40:42.879Z,101490.66
2018-02-14T00:43:12.083Z,101488.59
2018-02-14T00:45:40.611Z,101493.50
2018-02-14T00:48:09.917Z,101501.58
2018-02-14T00:50:38.231Z,101501.16
2018-02-14T00:53:07.863Z,101506.92
2018-02-14T00:55:37.216Z,101507.87
2018-02-14T00:58:05.820Z,101508.56
2018-02-14T01:00:34.670Z,101513.42
2018-02-14T01:03:02.995Z,101510.36
2018-02-14T01:05:31.347Z,101512.17
2018-02-14T01:07:59.713Z,101519.09
2018-02-14T01:10:28.123Z,101515.78
2018-02-14T01:12:57.430Z,101520.17
2018-02-14T01:15:27.037Z,101518.20
2018-02-14T01:17:55.712Z,101523.45
2018-02-14T01:20:29.653Z,101524.00
2018-02-14T01:22:58.755Z,101517.64
2018-02-14T01:25:27.096Z,101520.43
2018-02-14T01:27:55.450Z,101521.94
2018-02-14T01:30:23.761Z,101520.27
2018-02-14T01:32:52.080Z,101522.06
2018-02-14T01:35:20.915Z,101523.18
2018-02-14T01:37:49.248Z,101528.78
2018-02-14T01:40:17.591Z,101526.59
2018-02-14T01:42:46.241Z,101527.84
2018-02-14T01:45:14.608Z,101528.44
2018-02-14T01:47:42.948Z,101532.52
2018-02-14T01:50:12.098Z,101528.81
2018-02-14T01:52:40.443Z,101532.83
2018-02-14T01:55:08.799Z,101533.20
2018-02-14T01:57:38.419Z,101534.54
2018-02-14T02:00:07.501Z,101535.66
2018-02-14T02:02:35.838Z,101538.80
2018-02-14T02:05:04.254Z,101538.39
2018-02-14T02:07:32.581Z,101538.47
2018-02-14T02:10:00.932Z,101541.73
2018-02-14T02:12:30.084Z,101543.60
2018-02-14T02:14:58.502Z,101540.17
2018-02-14T02:17:26.860Z,101546.17
2018-02-14T02:19:55.566Z,101546.24
2018-02-14T02:22:23.895Z,101543.89
2018-02-14T02:24:52.210Z,101551.06
2018-02-14T02:27:20.552Z,101544.40
2018-02-14T02:29:48.904Z,101544.45
2018-02-14T02:32:17.401Z,101545.12
2018-02-14T02:34:45.749Z,101553.45
2018-02-14T02:37:14.965Z,101549.13
2018-02-14T02:42:55.721Z,101555.29
2018-02-14T02:45:24.065Z,101555.13
2018-02-14T02:47:52.401Z,101562.94
2018-02-14T02:50:20.960Z,101563.72
2018-02-14T02:52:49.539Z,101564.72
2018-02-14T02:55:17.837Z,101565.69
2018-02-14T02:57:47.272Z,101561.34
2018-02-14T03:00:15.980Z,101568.70
2018-02-14T03:02:44.610Z,101574.62
2018-02-14T03:05:13.136Z,101578.59
2018-02-14T03:07:41.623Z,101577.06
2018-02-14T03:10:10.236Z,101581.31
2018-02-14T03:12:38.596Z,101582.84
2018-02-14T03:15:07.057Z,101583.78
2018-02-14T03:17:35.519Z,101580.48
2018-02-14T03:20:03.849Z,101582.84
2018-02-14T03:22:32.453Z,101584.84
2018-02-14T03:25:00.783Z,101584.84
2018-02-14T03:27:29.115Z,101587.55
2018-02-14T03:29:58.354Z,101588.25
2018-02-14T03:32:26.812Z,101586.26
2018-02-14T03:34:55.255Z,101592.05
2018-02-14T03:37:23.600Z,101592.55
2018-02-14T03:39:51.924Z,101601.51
2018-02-14T03:42:20.250Z,101601.75
2018-02-14T03:44:49.216Z,101594.51
2018-02-14T03:47:17.508Z,101598.08
2018-02-14T03:49:45.846Z,101602.67
2018-02-14T03:52:14.227Z,101595.28
2018-02-14T03:54:42.550Z,101599.31
2018-02-14T03:57:10.858Z,101601.70
2018-02-14T03:59:39.234Z,101599.50
2018-02-14T04:02:07.583Z,101593.11
2018-02-14T04:04:35.905Z,101594.31
2018-02-14T04:07:04.628Z,101602.05
2018-02-14T04:09:33.722Z,101597.87
2018-02-14T04:12:02.824Z,101590.94
2018-02-14T04:14:31.962Z,101598.08
2018-02-14T04:17:00.304Z,101600.67
2018-02-14T04:19:28.630Z,101603.50
2018-02-14T04:21:56.961Z,101600.89
2018-02-14T04:24:26.059Z,101605.64
2018-02-14T04:26:55.126Z,101609.23
2018-02-14T04:29:23.648Z,101616.02
2018-02-14T04:31:52.043Z,101612.61
2018-02-14T04:34:20.346Z,101629.26
2018-02-14T04:36:48.665Z,101632.35
2018-02-14T04:39:17.029Z,101634.92
2018-02-14T04:41:46.129Z,101639.44
2018-02-14T04:44:14.654Z,101641.73
2018-02-14T04:46:42.999Z,101636.78
2018-02-14T04:49:12.103Z,101637.03
2018-02-14T04:51:41.684Z,101642.95
2018-02-14T04:54:10.013Z,101636.33
2018-02-14T04:56:38.388Z,101642.61
2018-02-14T04:59:06.750Z,101641.92
2018-02-14T05:01:35.825Z,101645.87
2018-02-14T05:04:04.153Z,101650.04
2018-02-14T05:06:32.484Z,101655.30
2018-02-14T05:09:01.559Z,101650.44
2018-02-14T05:11:29.897Z,101654.67
2018-02-14T05:13:58.336Z,101660.97
2018-02-14T05:16:26.666Z,101661.03
2018-02-14T05:18:55.045Z,101663.84
2018-02-14T05:21:23.519Z,101658.06
2018-02-14T05:23:51.845Z,101664.04
2018-02-14T05:26:20.183Z,101669.41
2018-02-14T05:28:48.543Z,101668.84
2018-02-14T05:31:16.864Z,101666.93
2018-02-14T05:33:45.957Z,101669.23
2018-02-14T05:36:14.702Z,101677.09
2018-02-14T05:38:43.047Z,101669.77
2018-02-14T05:41:11.382Z,101677.61
2018-02-14T05:43:39.713Z,101683.73
2018-02-14T05:46:08.819Z,101678.44
2018-02-14T05:48:37.923Z,101682.45
2018-02-14T05:51:06.256Z,101678.44
2018-02-14T05:53:34.633Z,101680.59
2018-02-14T05:56:02.940Z,101683.47
2018-02-14T05:58:31.487Z,101689.97
2018-02-14T06:00:59.819Z,101698.23
2018-02-14T06:03:28.128Z,101702.62
2018-02-14T06:05:56.476Z,101701.80
2018-02-14T06:08:25.584Z,101701.84
2018-02-14T06:10:53.914Z,101692.20
2018-02-14T06:13:22.275Z,101704.72
2018-02-14T06:15:50.644Z,101715.29
2018-02-14T06:18:18.965Z,101710.91
2018-02-14T06:20:48.469Z,101712.92
2018-02-14T06:23:16.793Z,101710.33
2018-02-14T06:25:45.109Z,101717.69
2018-02-14T06:28:13.479Z,101725.25
2018-02-14T06:30:41.826Z,101722.84
2018-02-14T06:33:10.148Z,101719.02
2018-02-14T06:35:38.636Z,101726.10
2018-02-14T06:38:06.986Z,101724.87
2018-02-14T06:40:35.294Z,101723.16
2018-02-14T06:43:03.936Z,101722.47
2018-02-14T06:45:32.295Z,101730.98
2018-02-14T06:48:00.640Z,101726.83
2018-02-14T06:50:29.008Z,101726.50
2018-02-14T06:52:57.349Z,101728.94
2018-02-14T06:55:25.714Z,101725.27
2018-02-14T06:57:54.028Z,101736.16
2018-02-14T07:00:22.325Z,101732.67
2018-02-14T07:02:50.676Z,101733.80
2018-02-14T07:05:19.516Z,101738.69
2018-02-14T07:07:47.897Z,101734.91
2018-02-14T07:10:16.246Z,101735.25
2018-02-14T07:12:44.593Z,101735.92
2018-02-14T07:15:12.937Z,101729.90
2018-02-14T07:17:42.049Z,101727.73
2018-02-14T07:20:10.538Z,101728.50
2018-02-14T07:22:39.069Z,101732.92
2018-02-14T07:25:07.411Z,101725.45
2018-02-14T07:27:36.292Z,101733.98
2018-02-14T07:30:04.600Z,101727.02
2018-02-14T07:32:32.925Z,101736.02
2018-02-14T07:35:02.013Z,101745.07
2018-02-14T07:37:31.130Z,101736.47
2018-02-14T07:39:59.443Z,101742.90
2018-02-14T07:42:28.043Z,101749.80
2018-02-14T07:44:56.373Z,101744.63
2018-02-14T07:47:24.684Z,101748.71
2018-02-14T07:49:53.226Z,101744.52
2018-02-14T07:52:21.556Z,101744.52
2018-02-14T07:54:49.863Z,101747.30
2018-02-14T07:57:18.960Z,101752.89
2018-02-14T07:59:48.054Z,101748.52
2018-02-14T08:02:17.171Z,101744.11
2018-02-14T08:04:45.534Z,101748.78
2018-02-14T08:07:13.868Z,101755.48
2018-02-14T08:09:42.957Z,101758.34
2018-02-14T08:12:11.856Z,101772.78
2018-02-14T08:14:40.210Z,101777.00
2018-02-14T08:17:08.550Z,101771.96
2018-02-14T08:19:36.927Z,101775.61
2018-02-14T08:22:05.287Z,101777.13
2018-02-14T08:24:33.609Z,101779.68
2018-02-14T08:27:01.991Z,101787.48
2018-02-14T08:29:30.342Z,101785.11
2018-02-14T08:31:58.667Z,101795.06
2018-02-14T08:34:27.320Z,101788.91
2018-02-14T08:36:55.784Z,101794.70
2018-02-14T08:39:25.208Z,101791.72
2018-02-14T08:41:54.304Z,101792.72
2018-02-14T08:44:23.384Z,101793.12
2018-02-14T08:46:51.720Z,101793.99
2018-02-14T08:49:20.087Z,101802.71
2018-02-14T08:51:48.415Z,101808.95
2018-02-14T08:54:16.777Z,101806.43
2018-02-14T08:56:45.490Z,101809.29
2018-02-14T08:59:13.816Z,101815.42
2018-02-14T09:01:42.131Z,101818.01
2018-02-14T09:04:10.498Z,101827.33
2018-02-14T09:06:38.861Z,101814.08
2018-02-14T09:09:07.188Z,101820.55
2018-02-14T09:11:36.284Z,101819.30
2018-02-14T09:14:05.376Z,101830.02
2018-02-14T09:16:34.466Z,101826.37
2018-02-14T09:19:04.068Z,101841.93
2018-02-14T09:21:32.487Z,101845.80
2018-02-14T09:24:00.831Z,101853.49
2018-02-14T09:26:29.214Z,101856.87
2018-02-14T09:28:57.553Z,101856.94
2018-02-14T09:31:25.905Z,101855.10
2018-02-14T09:33:54.277Z,101853.72
2018-02-14T09:36:22.605Z,101859.14
2018-02-14T09:38:50.935Z,101864.06
2018-02-14T09:41:19.380Z,101872.97
2018-02-14T09:43:47.721Z,101868.16
2018-02-14T09:46:16.198Z,101875.80
2018-02-14T09:48:44.575Z,101874.17
2018-02-14T09:51:12.911Z,101876.91
2018-02-14T09:53:42.001Z,101874.77
2018-02-14T09:56:11.108Z,101880.27
2018-02-14T09:58:39.420Z,101880.08
2018-02-14T10:01:07.776Z,101873.42
2018-02-14T10:03:37.384Z,101873.03
2018-02-14T10:06:05.723Z,101875.86
2018-02-14T10:08:35.826Z,101865.54
2018-02-14T10:11:04.145Z,101878.14
2018-02-14T10:13:33.243Z,101877.10
2018-02-14T10:16:02.427Z,101880.16
2018-02-14T10:18:30.747Z,101876.77
2018-02-14T10:20:59.061Z,101876.97
2018-02-14T10:23:27.939Z,101873.80
2018-02-14T10:25:56.258Z,101880.98
2018-02-14T10:28:25.362Z,101874.23
2018-02-14T10:30:54.986Z,101867.55
2018-02-14T10:33:23.339Z,101860.83
2018-02-14T10:35:51.683Z,101859.53
2018-02-14T10:38:20.022Z,101859.28
2018-02-14T10:40:48.379Z,101856.53
2018-02-14T10:43:17.497Z,101861.78
2018-02-14T10:45:47.105Z,101862.62
2018-02-14T10:48:15.453Z,101860.98
2018-02-14T10:50:43.833Z,101855.54
2018-02-14T10:53:12.594Z,101854.45
2018-02-14T10:55:40.983Z,101859.59
2018-02-14T10:58:09.311Z,101858.26
2018-02-14T11:00:43.208Z,101857.03
2018-02-14T11:03:17.969Z,101850.53
2018-02-14T11:08:54.324Z,101847.83
2018-02-14T11:11:23.825Z,101843.39
2018-02-14T11:13:52.928Z,101847.25
2018-02-14T11:16:22.101Z,101840.66
2018-02-14T11:18:50.705Z,101846.53
2018-02-14T11:21:19.830Z,101843.60
2018-02-14T11:23:48.210Z,101843.75
2018-02-14T11:26:16.554Z,101847.63
2018-02-14T11:28:45.691Z,101841.27
2018-02-14T11:31:14.071Z,101842.33
2018-02-14T11:33:42.720Z,101846.20
2018-02-14T11:36:11.122Z,101843.22
2018-02-14T11:38:39.470Z,101838.77
2018-02-14T11:41:08.622Z,101836.32
2018-02-14T11:43:36.991Z,101832.05
2018-02-14T11:46:05.322Z,101831.01
2018-02-14T11:48:33.689Z,101836.89
2018-02-14T11:51:02.842Z,101846.63
2018-02-14T11:53:31.427Z,101838.41
2018-02-14T11:56:00.539Z,101831.75
2018-02-14T11:58:28.860Z,101843.16
2018-02-14T12:00:57.199Z,101842.55
2018-02-14T12:03:25.587Z,101858.03
2018-02-14T12:05:53.969Z,101834.73
2018-02-14T12:08:22.526Z,101826.84
2018-02-14T12:10:50.918Z,101824.13
2018-02-14T12:13:19.366Z,101821.04
2018-02-14T12:15:47.747Z,101825.25
2018-02-14T12:18:16.734Z,101821.66
2018-02-14T12:20:45.835Z,101822.79
2018-02-14T12:23:14.967Z,101814.17
2018-02-14T12:25:43.357Z,101809.61
2018-02-14T12:28:11.699Z,101816.02
2018-02-14T12:30:40.097Z,101814.40
2018-02-14T12:33:08.957Z,101812.09
2018-02-14T12:35:37.310Z,101801.73
2018-02-14T12:38:06.441Z,101814.80
2018-02-14T12:40:34.863Z,101807.70
2018-02-14T12:43:03.189Z,101813.42
2018-02-14T12:45:32.309Z,101812.58
2018-02-14T12:48:00.700Z,101817.73
2018-02-14T12:50:29.092Z,101813.23
2018-02-14T12:52:57.457Z,101807.70
2018-02-14T12:55:25.837Z,101812.80
2018-02-14T12:57:54.165Z,101816.08
2018-02-14T13:00:22.504Z,101826.08
2018-02-14T13:02:51.338Z,101819.78
2018-02-14T13:05:19.664Z,101806.21
2018-02-14T13:07:48.009Z,101801.51
2018-02-14T13:10:17.397Z,101816.24
2018-02-14T13:12:46.491Z,101805.03
2018-02-14T13:15:14.853Z,101800.98
2018-02-14T13:17:43.206Z,101797.27
2018-02-14T13:20:11.528Z,101800.41
2018-02-14T13:22:40.673Z,101800.63
2018-02-14T13:25:09.830Z,101799.17
2018-02-14T13:27:38.960Z,101797.67
2018-02-14T13:30:07.348Z,101792.62
2018-02-14T13:32:35.726Z,101790.38
2018-02-14T13:35:04.105Z,101793.97
2018-02-14T13:37:32.481Z,101796.12
2018-02-14T13:40:00.901Z,101794.98
2018-02-14T13:42:29.239Z,101792.14
2018-02-14T13:44:57.577Z,101796.69
2018-02-14T13:47:27.240Z,101799.66
2018-02-14T13:49:55.627Z,101808.23
2018-02-14T13:52:24.024Z,101810.19
2018-02-14T13:54:52.389Z,101803.02
2018-02-14T13:57:20.744Z,101804.81
2018-02-14T13:59:49.079Z,101802.55
2018-02-14T14:02:17.553Z,101795.13
2018-02-14T14:04:45.900Z,101791.56
2018-02-14T14:07:14.281Z,101791.39
2018-02-14T14:09:42.930Z,101791.77
2018-02-14T14:12:11.282Z,101793.37
2018-02-14T14:14:39.814Z,101787.84
2018-02-14T14:17:08.194Z,101797.18
2018-02-14T14:19:36.536Z,101797.47
2018-02-14T14:22:05.663Z,101794.14
2018-02-14T14:24:34.509Z,101811.70
2018-02-14T14:27:02.853Z,101811.00
2018-02-14T14:29:31.221Z,101819.38
2018-02-14T14:31:59.840Z,101841.19
2018-02-14T14:34:28.212Z,101810.16
2018-02-14T14:36:56.548Z,101819.18
2018-02-14T14:39:24.928Z,101816.36
2018-02-14T14:41:53.295Z,101821.52
2018-02-14T14:44:21.673Z,101820.61
2018-02-14T14:46:50.024Z,101830.89
2018-02-14T14:49:18.356Z,101833.30
2018-02-14T14:51:46.703Z,101827.98
2018-02-14T14:54:15.349Z,101844.32
2018-02-14T14:56:45.298Z,101831.48
2018-02-14T14:59:14.434Z,101833.34
2018-02-14T15:01:43.068Z,101826.34
2018-02-14T15:04:12.192Z,101829.92
2018-02-14T15:06:40.523Z,101837.86
2018-02-14T15:09:08.911Z,101834.43
2018-02-14T15:11:37.322Z,101831.28
2018-02-14T15:14:05.628Z,101830.85
2018-02-14T15:16:34.493Z,101828.80
2018-02-14T15:19:02.824Z,101832.20
2018-02-14T15:21:31.133Z,101840.53
2018-02-14T15:24:00.303Z,101837.46
2018-02-14T15:26:28.667Z,101833.05
2018-02-14T15:28:57.765Z,101837.13
2018-02-14T15:31:26.131Z,101854.20
2018-02-14T15:33:54.457Z,101839.83
2018-02-14T15:36:22.789Z,101840.73
2018-02-14T15:38:51.673Z,101840.27
2018-02-14T15:41:20.119Z,101844.05
2018-02-14T15:43:48.443Z,101854.90
2018-02-14T15:46:16.863Z,101859.20
2018-02-14T15:48:45.168Z,101861.70
2018-02-14T15:51:13.466Z,101859.80
2018-02-14T15:53:41.816Z,101868.34
2018-02-14T15:56:10.896Z,101868.48
2018-02-14T15:58:39.431Z,101870.63
2018-02-14T16:01:08.144Z,101874.66
2018-02-14T16:03:36.438Z,101869.80
2018-02-14T16:06:04.769Z,101874.23
2018-02-14T16:08:33.094Z,101870.16
2018-02-14T16:11:01.433Z,101876.98
2018-02-14T16:13:30.445Z,101876.21
2018-02-14T16:15:59.252Z,101879.17
2018-02-14T16:18:27.552Z,101874.39
2018-02-14T16:20:55.925Z,101883.55
2018-02-14T16:23:25.725Z,101873.59
2018-02-14T16:25:54.070Z,101888.09
2018-02-14T16:28:22.435Z,101881.32
2018-02-14T16:30:50.807Z,101887.68
2018-02-14T16:33:19.145Z,101889.62
2018-02-14T16:35:48.251Z,101892.95
2018-02-14T16:38:17.369Z,101894.84
2018-02-14T16:40:45.764Z,101895.20
2018-02-14T16:43:14.096Z,101897.24
2018-02-14T16:45:43.522Z,101893.31
2018-02-14T16:48:11.870Z,101898.86
2018-02-14T16:50:40.223Z,101896.86
2018-02-14T16:53:09.179Z,101893.76
2018-02-14T16:55:37.557Z,101890.73
2018-02-14T16:58:06.655Z,101899.61
2018-02-14T17:00:35.029Z,101899.23
2018-02-14T17:03:03.384Z,101909.62
2018-02-14T17:05:31.718Z,101901.66
2018-02-14T17:08:00.274Z,101903.29
2018-02-14T17:10:28.610Z,101907.03
2018-02-14T17:12:56.950Z,101909.67
2018-02-14T17:15:25.311Z,101905.47
2018-02-14T17:17:53.659Z,101913.40
2018-02-14T17:20:22.021Z,101917.20
2018-02-14T17:22:50.434Z,101912.95
2018-02-14T17:25:18.757Z,101914.63
2018-02-14T17:27:47.120Z,101922.40
2018-02-14T17:30:16.184Z,101925.87
2018-02-14T17:32:44.513Z,101928.51
2018-02-14T17:35:12.872Z,101916.02
2018-02-14T17:37:41.225Z,101932.27
2018-02-14T17:40:09.557Z,101924.64
2018-02-14T17:42:37.907Z,101925.76
2018-02-14T17:45:06.265Z,101937.41
2018-02-14T17:47:35.366Z,101930.54
2018-02-14T17:50:03.724Z,101933.13
2018-02-14T17:52:33.173Z,101940.86
2018-02-14T17:55:01.812Z,101942.64
2018-02-14T17:57:30.915Z,101940.48
2018-02-14T18:00:00.091Z,101940.44
2018-02-14T18:02:29.189Z,101940.10
2018-02-14T18:04:57.532Z,101940.58
2018-02-14T18:07:26.181Z,101941.25
2018-02-14T18:09:54.545Z,101944.45
2018-02-14T18:12:22.907Z,101949.33
2018-02-14T18:14:51.642Z,101943.11
2018-02-14T18:17:19.987Z,101940.87
2018-02-14T18:19:48.525Z,101938.66
2018-02-14T18:22:16.895Z,101945.31
2018-02-14T18:24:45.228Z,101945.17
2018-02-14T18:27:13.643Z,101950.45
2018-02-14T18:29:42.017Z,101944.84
2018-02-14T18:32:10.351Z,101946.55
2018-02-14T18:34:38.717Z,101943.83
2018-02-14T18:37:07.257Z,101946.72
2018-02-14T18:39:36.357Z,101950.06
2018-02-14T18:42:04.732Z,101952.17
2018-02-14T18:44:33.353Z,101952.82
2018-02-14T18:47:01.697Z,101954.44
2018-02-14T18:49:30.134Z,101952.13
2018-02-14T18:51:58.456Z,101946.91
2018-02-14T18:54:27.543Z,101941.61
2018-02-14T18:56:56.659Z,101943.08
2018-02-14T18:59:25.825Z,101939.48
2018-02-14T19:01:54.364Z,101943.25
2018-02-14T19:04:22.695Z,101941.84
2018-02-14T19:06:52.949Z,101940.59
2018-02-14T19:09:21.269Z,101937.91
2018-02-14T19:11:50.368Z,101933.02
2018-02-14T19:14:18.850Z,101936.81
2018-02-14T19:16:47.191Z,101917.63
2018-02-14T19:19:15.622Z,101921.47
2018-02-14T19:21:45.686Z,101916.89
2018-02-14T19:24:14.058Z,101911.71
2018-02-14T19:26:42.402Z,101909.09
2018-02-14T19:29:11.589Z,101901.02
2018-02-14T19:31:39.985Z,101905.39
2018-02-14T19:34:08.313Z,101899.56
2018-02-14T19:36:36.691Z,101898.73
2018-02-14T19:39:05.036Z,101891.00
2018-02-14T19:41:33.446Z,101889.84
2018-02-14T19:44:02.092Z,101891.54
2018-02-14T19:46:30.685Z,101891.84
2018-02-14T19:48:59.118Z,101887.44
2018-02-14T19:51:27.627Z,101890.37
2018-02-14T19:53:55.979Z,101889.80
2018-02-14T19:56:24.301Z,101893.88
2018-02-14T19:58:53.085Z,101897.19
2018-02-14T20:01:21.464Z,101901.20
2018-02-14T20:03:50.635Z,101913.58
2018-02-14T20:06:19.355Z,101903.23
2018-02-14T20:08:47.718Z,101898.74
2018-02-14T20:11:16.889Z,101893.17
2018-02-14T20:13:45.292Z,101899.52
2018-02-14T20:16:14.408Z,101896.02
2018-02-14T20:18:42.893Z,101906.20
2018-02-14T20:21:12.121Z,101893.83
2018-02-14T20:23:40.623Z,101902.88
2018-02-14T20:26:08.943Z,101915.95
2018-02-14T20:28:38.265Z,101907.39
2018-02-14T20:31:06.604Z,101906.97
2018-02-14T20:33:34.932Z,101904.00
2018-02-14T20:36:03.638Z,101919.89
2018-02-14T20:38:31.937Z,101915.13
2018-02-14T20:41:00.280Z,101910.05
2018-02-14T20:43:30.070Z,101903.67
2018-02-14T20:45:58.412Z,101895.77
2018-02-14T20:48:26.858Z,101884.80
2018-02-14T20:50:56.268Z,101885.79
2018-02-14T20:53:24.602Z,101871.13
2018-02-14T20:55:52.950Z,101881.48
2018-02-14T20:58:21.291Z,101873.23
2018-02-14T21:00:49.602Z,101865.41
2018-02-14T21:03:17.953Z,101862.53
2018-02-14T21:05:46.309Z,101854.93
2018-02-14T21:08:14.679Z,101849.25
2018-02-14T21:10:43.017Z,101852.40
2018-02-14T21:13:11.472Z,101854.00
2018-02-14T21:15:39.869Z,101844.41
2018-02-14T21:18:08.178Z,101829.97
2018-02-14T21:20:37.331Z,101832.68
2018-02-14T21:23:05.691Z,101826.86
2018-02-14T21:25:34.107Z,101810.65
2018-02-14T21:28:02.470Z,101811.62
2018-02-14T21:30:30.916Z,101806.16
2018-02-14T21:32:59.239Z,101808.11
2018-02-14T21:35:27.684Z,101800.20
2018-02-14T21:37:55.993Z,101807.72
2018-02-14T21:40:24.331Z,101799.27
2018-02-14T21:42:52.708Z,101796.33
2018-02-14T21:45:21.100Z,101812.17
2018-02-14T21:47:49.428Z,101802.63
2018-02-14T21:50:17.778Z,101807.26
2018-02-14T21:52:46.144Z,101791.77
2018-02-14T21:55:14.476Z,101798.83
2018-02-14T21:57:43.200Z,101796.37
2018-02-14T22:00:11.539Z,101799.48
2018-02-14T22:02:39.867Z,101805.05
2018-02-14T22:05:08.224Z,101806.16
2018-02-14T22:07:37.314Z,101820.46
2018-02-14T22:10:06.406Z,101813.62
2018-02-14T22:12:35.537Z,101816.84
2018-02-14T22:15:03.887Z,101820.54
2018-02-14T22:17:32.256Z,101823.94
2018-02-14T22:20:01.712Z,101819.75
2018-02-14T22:22:30.056Z,101817.97
2018-02-14T22:24:59.144Z,101825.07
2018-02-14T22:27:28.288Z,101820.12
2018-02-14T22:29:56.624Z,101824.00
2018-02-14T22:32:24.941Z,101809.39
2018-02-14T22:34:53.265Z,101814.20
2018-02-14T22:37:22.334Z,101820.19
2018-02-14T22:39:50.675Z,101821.21
2018-02-14T22:42:19.109Z,101814.73
2018-02-14T22:44:47.456Z,101812.83
2018-02-14T22:47:15.825Z,101819.89
2018-02-14T22:49:44.184Z,101817.19
2018-02-14T22:52:12.523Z,101821.42
2018-02-14T22:54:40.848Z,101813.16
2018-02-14T22:57:09.646Z,101802.86
2018-02-14T22:59:37.978Z,101803.28
2018-02-14T23:02:07.061Z,101804.23
2018-02-14T23:04:35.768Z,101805.84
2018-02-14T23:07:04.843Z,101806.74
2018-02-14T23:09:33.280Z,101801.18
2018-02-14T23:12:01.628Z,101800.14
2018-02-14T23:14:30.278Z,101789.80
2018-02-14T23:16:58.672Z,101790.16
2018-02-14T23:19:27.348Z,101791.45
2018-02-14T23:21:55.693Z,101781.12
2018-02-14T23:24:24.007Z,101799.55
2018-02-14T23:26:52.720Z,101778.34
2018-02-14T23:29:21.816Z,101784.91
2018-02-14T23:31:51.307Z,101780.53
2018-02-14T23:34:20.244Z,101777.73
2018-02-14T23:36:48.739Z,101774.61
2018-02-14T23:39:17.069Z,101774.37
2018-02-14T23:41:46.243Z,101771.12
2018-02-14T23:44:14.634Z,101771.84
2018-02-14T23:46:42.992Z,101764.84
2018-02-14T23:49:11.732Z,101760.78
2018-02-14T23:51:40.060Z,101761.28
2018-02-14T23:54:08.411Z,101765.73
2018-02-14T23:56:36.769Z,101761.00
2018-02-14T23:59:05.122Z,101767.20
